sensor_id;sensor_type;location;lat;lon;timestamp;pressure;altitude;pressure_sealevel;temperature;humidity
14343;BME280;7255;53.596;9.960;2023-01-28T00:01:33;102616.72;;;2.03;nan
14343;BME280;7255;53.596;9.960;2023-01-28T00:04:00;102601.75;;;2.13;nan
14343;BME280;7255;53.596;9.960;2023-01-28T00:06:26;102622.72;;;2.16;nan
14343;BME280;7255;53.596;9.960;2023-01-28T00:08:52;102623.66;;;2.26;nan
14343;BME280;7255;53.596;9.960;2023-01-28T00:11:21;102620.06;;;2.27;nan
14343;BME280;7255;53.596;9.960;2023-01-28T00:13:50;102615.50;;;2.18;nan
14343;BME280;7255;53.596;9.960;2023-01-28T00:16:17;102615.00;;;2.24;nan
14343;BME280;7255;53.596;9.960;2023-01-28T00:18:43;102625.09;;;2.30;nan
14343;BME280;7255;53.596;9.960;2023-01-28T00:21:11;102612.31;;;2.36;nan
14343;BME280;7255;53.596;9.960;2023-01-28T00:23:39;102621.69;;;2.51;nan
14343;BME280;7255;53.596;9.960;2023-01-28T00:26:08;102626.66;;;2.44;nan
14343;BME280;7255;53.596;9.960;2023-01-28T00:28:36;102627.25;;;2.48;nan
14343;BME280;7255;53.596;9.960;2023-01-28T00:31:05;102636.53;;;2.54;nan
14343;BME280;7255;53.596;9.960;2023-01-28T00:33:31;102628.44;;;2.55;nan
14343;BME280;7255;53.596;9.960;2023-01-28T00:35:58;102643.16;;;2.48;nan
14343;BME280;7255;53.596;9.960;2023-01-28T00:38:25;102621.09;;;2.47;nan
14343;BME280;7255;53.596;9.960;2023-01-28T00:40:51;102621.50;;;2.31;nan
14343;BME280;7255;53.596;9.960;2023-01-28T00:43:18;102610.19;;;2.18;nan
14343;BME280;7255;53.596;9.960;2023-01-28T00:45:46;102613.44;;;2.10;nan
14343;BME280;7255;53.596;9.960;2023-01-28T00:48:12;102611.53;;;2.12;nan
14343;BME280;7255;53.596;9.960;2023-01-28T00:50:38;102612.22;;;2.26;nan
14343;BME280;7255;53.596;9.960;2023-01-28T00:53:05;102619.31;;;2.37;nan
14343;BME280;7255;53.596;9.960;2023-01-28T00:55:31;102614.25;;;2.34;nan
14343;BME280;7255;53.596;9.960;2023-01-28T00:57:58;102617.88;;;2.33;nan
14343;BME280;7255;53.596;9.960;2023-01-28T01:00:24;102610.28;;;2.28;nan
14343;BME280;7255;53.596;9.960;2023-01-28T01:02:52;102619.56;;;2.34;nan
14343;BME280;7255;53.596;9.960;2023-01-28T01:05:18;102613.75;;;2.40;nan
14343;BME280;7255;53.596;9.960;2023-01-28T01:07:45;102596.78;;;2.20;nan
14343;BME280;7255;53.596;9.960;2023-01-28T01:10:13;102617.78;;;2.23;nan
14343;BME280;7255;53.596;9.960;2023-01-28T01:12:40;102606.81;;;2.16;nan
14343;BME280;7255;53.596;9.960;2023-01-28T01:15:08;102613.28;;;2.23;nan
14343;BME280;7255;53.596;9.960;2023-01-28T01:17:35;102615.97;;;2.35;nan
14343;BME280;7255;53.596;9.960;2023-01-28T01:20:08;102613.28;;;2.23;nan
14343;BME280;7255;53.596;9.960;2023-01-28T01:22:36;102613.28;;;2.23;nan
14343;BME280;7255;53.596;9.960;2023-01-28T01:25:04;102619.94;;;2.18;nan
14343;BME280;7255;53.596;9.960;2023-01-28T01:27:31;102581.12;;;2.17;nan
14343;BME280;7255;53.596;9.960;2023-01-28T01:29:58;102613.06;;;2.26;nan
14343;BME280;7255;53.596;9.960;2023-01-28T01:32:24;102620.06;;;2.27;nan
14343;BME280;7255;53.596;9.960;2023-01-28T01:34:50;102613.06;;;2.26;nan
14343;BME280;7255;53.596;9.960;2023-01-28T01:37:18;102609.69;;;2.24;nan
14343;BME280;7255;53.596;9.960;2023-01-28T01:39:44;102599.81;;;2.15;nan
14343;BME280;7255;53.596;9.960;2023-01-28T01:42:12;102613.56;;;2.20;nan
14343;BME280;7255;53.596;9.960;2023-01-28T01:44:52;102600.06;;;2.12;nan
14343;BME280;7255;53.596;9.960;2023-01-28T01:47:23;102597.66;;;2.20;nan
14343;BME280;7255;53.596;9.960;2023-01-28T01:49:50;102607.75;;;2.26;nan
14343;BME280;7255;53.596;9.960;2023-01-28T01:52:22;102602.69;;;2.23;nan
14343;BME280;7255;53.596;9.960;2023-01-28T01:54:52;102612.09;;;2.16;nan
14343;BME280;7255;53.596;9.960;2023-01-28T01:57:23;102595.72;;;2.22;nan
14343;BME280;7255;53.596;9.960;2023-01-28T01:59:52;102609.69;;;2.24;nan
14343;BME280;7255;53.596;9.960;2023-01-28T02:02:19;102599.59;;;2.18;nan
14343;BME280;7255;53.596;9.960;2023-01-28T02:04:46;102605.87;;;2.06;nan
14343;BME280;7255;53.596;9.960;2023-01-28T02:07:14;102603.47;;;1.91;nan
14343;BME280;7255;53.596;9.960;2023-01-28T02:09:43;102592.97;;;2.01;nan
14343;BME280;7255;53.596;9.960;2023-01-28T02:12:11;102595.84;;;2.09;nan
14343;BME280;7255;53.596;9.960;2023-01-28T02:14:43;102596.47;;;2.13;nan
14343;BME280;7255;53.596;9.960;2023-01-28T02:17:10;102600.56;;;2.06;nan
14343;BME280;7255;53.596;9.960;2023-01-28T02:19:41;102597.19;;;2.04;nan
14343;BME280;7255;53.596;9.960;2023-01-28T02:22:20;102603.84;;;1.98;nan
14343;BME280;7255;53.596;9.960;2023-01-28T02:25:10;102597.34;;;1.91;nan
14343;BME280;7255;53.596;9.960;2023-01-28T02:27:57;102593.81;;;2.02;nan
14343;BME280;7255;53.596;9.960;2023-01-28T02:30:32;102590.69;;;1.97;nan
14343;BME280;7255;53.596;9.960;2023-01-28T02:33:05;102588.25;;;2.05;nan
14343;BME280;7255;53.596;9.960;2023-01-28T02:35:36;102583.97;;;1.92;nan
14343;BME280;7255;53.596;9.960;2023-01-28T02:38:07;102585.28;;;1.87;nan
14343;BME280;7255;53.596;9.960;2023-01-28T02:40:37;102585.16;;;1.77;nan
14343;BME280;7255;53.596;9.960;2023-01-28T02:43:32;102578.78;;;1.80;nan
14343;BME280;7255;53.596;9.960;2023-01-28T02:45:59;102586.34;;;1.84;nan
14343;BME280;7255;53.596;9.960;2023-01-28T02:48:46;102579.13;;;1.86;nan
14343;BME280;7255;53.596;9.960;2023-01-28T02:51:17;102585.87;;;1.68;nan
14343;BME280;7255;53.596;9.960;2023-01-28T02:53:51;102599.03;;;1.69;nan
14343;BME280;7255;53.596;9.960;2023-01-28T02:56:27;102586.84;;;1.78;nan
14343;BME280;7255;53.596;9.960;2023-01-28T02:59:02;102589.13;;;1.83;nan
14343;BME280;7255;53.596;9.960;2023-01-28T03:01:49;102585.16;;;1.77;nan
14343;BME280;7255;53.596;9.960;2023-01-28T03:04:26;102594.31;;;1.73;nan
14343;BME280;7255;53.596;9.960;2023-01-28T03:06:57;102596.72;;;1.42;nan
14343;BME280;7255;53.596;9.960;2023-01-28T03:09:27;102585.16;;;1.54;nan
14343;BME280;7255;53.596;9.960;2023-01-28T03:11:56;102591.41;;;1.65;nan
14343;BME280;7255;53.596;9.960;2023-01-28T03:14:45;102578.41;;;1.73;nan
14343;BME280;7255;53.596;9.960;2023-01-28T03:17:34;102573.47;;;1.80;nan
14343;BME280;7255;53.596;9.960;2023-01-28T03:20:20;102560.94;;;1.82;nan
14343;BME280;7255;53.596;9.960;2023-01-28T03:23:09;102581.16;;;1.94;nan
14343;BME280;7255;53.596;9.960;2023-01-28T03:25:56;102574.69;;;1.87;nan
14343;BME280;7255;53.596;9.960;2023-01-28T03:28:43;102555.97;;;1.88;nan
14343;BME280;7255;53.596;9.960;2023-01-28T03:31:29;102560.59;;;1.75;nan
14343;BME280;7255;53.596;9.960;2023-01-28T03:34:14;102557.94;;;1.64;nan
14343;BME280;7255;53.596;9.960;2023-01-28T03:36:58;102568.31;;;1.67;nan
14343;BME280;7255;53.596;9.960;2023-01-28T03:39:27;102567.94;;;1.60;nan
14343;BME280;7255;53.596;9.960;2023-01-28T03:41:58;102575.50;;;1.65;nan
14343;BME280;7255;53.596;9.960;2023-01-28T03:44:25;102580.25;;;1.61;nan
14343;BME280;7255;53.596;9.960;2023-01-28T03:47:11;102594.56;;;1.70;nan
14343;BME280;7255;53.596;9.960;2023-01-28T03:49:39;102590.34;;;1.67;nan
14343;BME280;7255;53.596;9.960;2023-01-28T03:52:06;102581.06;;;1.62;nan
14343;BME280;7255;53.596;9.960;2023-01-28T03:54:32;102558.66;;;1.54;nan
14343;BME280;7255;53.596;9.960;2023-01-28T03:56:59;102586.25;;;1.75;nan
14343;BME280;7255;53.596;9.960;2023-01-28T03:59:25;102576.50;;;1.75;nan
14343;BME280;7255;53.596;9.960;2023-01-28T04:01:51;102572.50;;;1.69;nan
14343;BME280;7255;53.596;9.960;2023-01-28T04:04:21;102568.78;;;1.61;nan
14343;BME280;7255;53.596;9.960;2023-01-28T04:06:49;102573.47;;;1.57;nan
14343;BME280;7255;53.596;9.960;2023-01-28T04:09:15;102576.97;;;1.46;nan
14343;BME280;7255;53.596;9.960;2023-01-28T04:11:41;102578.66;;;1.47;nan
14343;BME280;7255;53.596;9.960;2023-01-28T04:14:07;102568.78;;;1.38;nan
14343;BME280;7255;53.596;9.960;2023-01-28T04:16:34;102574.78;;;1.29;nan
14343;BME280;7255;53.596;9.960;2023-01-28T04:19:00;102568.16;;;1.34;nan
14343;BME280;7255;53.596;9.960;2023-01-28T04:21:28;102555.63;;;1.14;nan
14343;BME280;7255;53.596;9.960;2023-01-28T04:23:54;102557.56;;;1.12;nan
14343;BME280;7255;53.596;9.960;2023-01-28T04:26:20;102551.75;;;0.95;nan
14343;BME280;7255;53.596;9.960;2023-01-28T04:28:47;102554.94;;;0.88;nan
14343;BME280;7255;53.596;9.960;2023-01-28T04:31:13;102557.34;;;0.80;nan
14343;BME280;7255;53.596;9.960;2023-01-28T04:33:39;102556.34;;;0.69;nan
14343;BME280;7255;53.596;9.960;2023-01-28T04:36:06;102554.66;;;0.68;nan
14343;BME280;7255;53.596;9.960;2023-01-28T04:38:34;102551.28;;;0.66;nan
14343;BME280;7255;53.596;9.960;2023-01-28T04:41:00;102537.09;;;0.67;nan
14343;BME280;7255;53.596;9.960;2023-01-28T04:43:26;102627.47;;;0.74;nan
14343;BME280;7255;53.596;9.960;2023-01-28T04:45:52;102624.53;;;0.66;nan
14343;BME280;7255;53.596;9.960;2023-01-28T04:48:19;102548.28;;;0.71;nan
14343;BME280;7255;53.596;9.960;2023-01-28T04:50:45;102546.84;;;0.67;nan
14343;BME280;7255;53.596;9.960;2023-01-28T04:53:12;102551.53;;;0.63;nan
14343;BME280;7255;53.596;9.960;2023-01-28T04:55:39;102555.09;;;0.62;nan
14343;BME280;7255;53.596;9.960;2023-01-28T04:58:06;102553.44;;;0.61;nan
14343;BME280;7255;53.596;9.960;2023-01-28T05:00:32;102562.78;;;0.54;nan
14343;BME280;7255;53.596;9.960;2023-01-28T05:02:59;102551.87;;;0.34;nan
14343;BME280;7255;53.596;9.960;2023-01-28T05:05:25;102553.72;;;0.45;nan
14343;BME280;7255;53.596;9.960;2023-01-28T05:07:52;102549.28;;;0.46;nan
14343;BME280;7255;53.596;9.960;2023-01-28T05:10:19;102552.28;;;0.41;nan
14343;BME280;7255;53.596;9.960;2023-01-28T05:12:47;102543.59;;;0.39;nan
14343;BME280;7255;53.596;9.960;2023-01-28T05:15:14;102537.22;;;0.42;nan
14343;BME280;7255;53.596;9.960;2023-01-28T05:17:41;102521.00;;;0.35;nan
14343;BME280;7255;53.596;9.960;2023-01-28T05:20:09;102524.84;;;0.18;nan
14343;BME280;7255;53.596;9.960;2023-01-28T05:22:35;102520.03;;;0.12;nan
14343;BME280;7255;53.596;9.960;2023-01-28T05:25:02;102514.59;;;0.02;nan
14343;BME280;7255;53.596;9.960;2023-01-28T05:27:29;102509.50;;;-0.01;nan
14343;BME280;7255;53.596;9.960;2023-01-28T05:29:56;102475.47;;;-0.06;nan
14343;BME280;7255;53.596;9.960;2023-01-28T05:32:22;102493.03;;;-0.05;nan
14343;BME280;7255;53.596;9.960;2023-01-28T05:34:49;102494.50;;;-0.01;nan
14343;BME280;7255;53.596;9.960;2023-01-28T05:37:15;102493.50;;;-0.11;nan
14343;BME280;7255;53.596;9.960;2023-01-28T05:39:42;102495.66;;;-0.29;nan
14343;BME280;7255;53.596;9.960;2023-01-28T05:42:08;102486.38;;;-0.34;nan
14343;BME280;7255;53.596;9.960;2023-01-28T05:44:34;102489.28;;;-0.26;nan
14343;BME280;7255;53.596;9.960;2023-01-28T05:47:03;102484.47;;;-0.32;nan
14343;BME280;7255;53.596;9.960;2023-01-28T05:49:29;102483.22;;;-0.40;nan
14343;BME280;7255;53.596;9.960;2023-01-28T05:51:56;102486.16;;;-0.44;nan
14343;BME280;7255;53.596;9.960;2023-01-28T05:54:22;102487.87;;;-0.43;nan
14343;BME280;7255;53.596;9.960;2023-01-28T05:56:48;102475.41;;;-0.54;nan
14343;BME280;7255;53.596;9.960;2023-01-28T05:59:14;102466.97;;;-0.59;nan
14343;BME280;7255;53.596;9.960;2023-01-28T06:01:41;102470.34;;;-0.57;nan
14343;BME280;7255;53.596;9.960;2023-01-28T06:04:09;102473.97;;;-0.71;nan
14343;BME280;7255;53.596;9.960;2023-01-28T06:06:35;102476.09;;;-0.76;nan
14343;BME280;7255;53.596;9.960;2023-01-28T06:09:01;102471.41;;;-0.60;nan
14343;BME280;7255;53.596;9.960;2023-01-28T06:11:28;102477.31;;;-0.56;nan
14343;BME280;7255;53.596;9.960;2023-01-28T06:13:54;102468.88;;;-0.61;nan
14343;BME280;7255;53.596;9.960;2023-01-28T06:16:20;102474.37;;;-0.64;nan
14343;BME280;7255;53.596;9.960;2023-01-28T06:18:46;102475.25;;;-0.64;nan
14343;BME280;7255;53.596;9.960;2023-01-28T06:21:14;102468.47;;;-0.55;nan
14343;BME280;7255;53.596;9.960;2023-01-28T06:23:40;102481.97;;;-0.47;nan
14343;BME280;7255;53.596;9.960;2023-01-28T06:26:07;102476.88;;;-0.50;nan
14343;BME280;7255;53.596;9.960;2023-01-28T06:28:33;102472.22;;;-0.46;nan
14343;BME280;7255;53.596;9.960;2023-01-28T06:30:59;102488.50;;;-0.40;nan
14343;BME280;7255;53.596;9.960;2023-01-28T06:33:26;102455.09;;;-0.41;nan
14343;BME280;7255;53.596;9.960;2023-01-28T06:35:53;102438.25;;;-0.51;nan
14343;BME280;7255;53.596;9.960;2023-01-28T06:38:20;102445.66;;;-0.56;nan
14343;BME280;7255;53.596;9.960;2023-01-28T06:40:50;102460.03;;;-0.60;nan
14343;BME280;7255;53.596;9.960;2023-01-28T06:43:16;102433.63;;;-0.60;nan
14343;BME280;7255;53.596;9.960;2023-01-28T06:45:43;102458.31;;;-0.61;nan
14343;BME280;7255;53.596;9.960;2023-01-28T06:48:09;102457.50;;;-0.74;nan
14343;BME280;7255;53.596;9.960;2023-01-28T06:50:35;102439.97;;;-0.75;nan
14343;BME280;7255;53.596;9.960;2023-01-28T06:53:02;102450.97;;;-0.82;nan
14343;BME280;7255;53.596;9.960;2023-01-28T06:55:29;102460.91;;;-0.98;nan
14343;BME280;7255;53.596;9.960;2023-01-28T06:57:55;102473.38;;;-1.00;nan
14343;BME280;7255;53.596;9.960;2023-01-28T07:00:22;102480.31;;;-0.99;nan
14343;BME280;7255;53.596;9.960;2023-01-28T07:02:48;102489.00;;;-1.10;nan
14343;BME280;7255;53.596;9.960;2023-01-28T07:05:14;102488.75;;;-1.20;nan
14343;BME280;7255;53.596;9.960;2023-01-28T07:07:41;102486.03;;;-1.18;nan
14343;BME280;7255;53.596;9.960;2023-01-28T07:10:08;102495.31;;;-1.25;nan
14343;BME280;7255;53.596;9.960;2023-01-28T07:12:36;102515.56;;;-1.26;nan
14343;BME280;7255;53.596;9.960;2023-01-28T07:15:03;102496.56;;;-1.31;nan
14343;BME280;7255;53.596;9.960;2023-01-28T07:17:29;102443.37;;;-1.25;nan
14343;BME280;7255;53.596;9.960;2023-01-28T07:19:56;102515.38;;;-1.23;nan
14343;BME280;7255;53.596;9.960;2023-01-28T07:22:22;102525.69;;;-1.20;nan
14343;BME280;7255;53.596;9.960;2023-01-28T07:24:48;102524.19;;;-1.37;nan
14343;BME280;7255;53.596;9.960;2023-01-28T07:27:15;102529.28;;;-1.33;nan
14343;BME280;7255;53.596;9.960;2023-01-28T07:29:43;102507.94;;;-1.30;nan
14343;BME280;7255;53.596;9.960;2023-01-28T07:32:09;102446.78;;;-1.23;nan
14343;BME280;7255;53.596;9.960;2023-01-28T07:34:36;102524.66;;;-1.17;nan
14343;BME280;7255;53.596;9.960;2023-01-28T07:37:04;102522.97;;;-1.18;nan
14343;BME280;7255;53.596;9.960;2023-01-28T07:39:30;102523.41;;;-1.11;nan
14343;BME280;7255;53.596;9.960;2023-01-28T07:41:57;102526.97;;;-1.12;nan
14343;BME280;7255;53.596;9.960;2023-01-28T07:44:23;102511.16;;;-1.12;nan
14343;BME280;7255;53.596;9.960;2023-01-28T07:46:51;102537.97;;;-1.19;nan
14343;BME280;7255;53.596;9.960;2023-01-28T07:49:18;102531.00;;;-1.07;nan
14343;BME280;7255;53.596;9.960;2023-01-28T07:51:44;102528.44;;;-1.08;nan
14343;BME280;7255;53.596;9.960;2023-01-28T07:54:11;102527.41;;;-1.06;nan
14343;BME280;7255;53.596;9.960;2023-01-28T07:56:37;102525.06;;;-1.10;nan
14343;BME280;7255;53.596;9.960;2023-01-28T07:59:04;102517.91;;;-1.08;nan
14343;BME280;7255;53.596;9.960;2023-01-28T08:01:30;102520.88;;;-1.13;nan
14343;BME280;7255;53.596;9.960;2023-01-28T08:03:57;102477.81;;;-1.01;nan
14343;BME280;7255;53.596;9.960;2023-01-28T08:06:24;102525.72;;;-1.07;nan
14343;BME280;7255;53.596;9.960;2023-01-28T08:08:50;102530.97;;;-1.20;nan
14343;BME280;7255;53.596;9.960;2023-01-28T08:11:16;102535.22;;;-1.04;nan
14343;BME280;7255;53.596;9.960;2023-01-28T08:13:43;102532.91;;;-0.96;nan
14343;BME280;7255;53.596;9.960;2023-01-28T08:16:09;102478.00;;;-1.04;nan
14343;BME280;7255;53.596;9.960;2023-01-28T08:18:35;102485.19;;;-0.93;nan
14343;BME280;7255;53.596;9.960;2023-01-28T08:21:03;102548.94;;;-0.99;nan
14343;BME280;7255;53.596;9.960;2023-01-28T08:23:30;102541.97;;;-1.00;nan
14343;BME280;7255;53.596;9.960;2023-01-28T08:25:59;102521.06;;;-0.90;nan
14343;BME280;7255;53.596;9.960;2023-01-28T08:28:26;102514.31;;;-0.94;nan
14343;BME280;7255;53.596;9.960;2023-01-28T08:30:52;102538.63;;;-0.89;nan
14343;BME280;7255;53.596;9.960;2023-01-28T08:33:19;102484.13;;;-0.90;nan
14343;BME280;7255;53.596;9.960;2023-01-28T08:35:45;102545.16;;;-0.82;nan
14343;BME280;7255;53.596;9.960;2023-01-28T08:38:13;102538.37;;;-0.86;nan
14343;BME280;7255;53.596;9.960;2023-01-28T08:40:41;102542.00;;;-0.74;nan
14343;BME280;7255;53.596;9.960;2023-01-28T08:43:08;102550.00;;;-0.63;nan
14343;BME280;7255;53.596;9.960;2023-01-28T08:45:34;102545.34;;;-0.60;nan
14343;BME280;7255;53.596;9.960;2023-01-28T08:48:03;102558.66;;;-0.61;nan
14343;BME280;7255;53.596;9.960;2023-01-28T08:50:32;102565.00;;;-0.64;nan
14343;BME280;7255;53.596;9.960;2023-01-28T08:53:00;102573.66;;;-0.49;nan
14343;BME280;7255;53.596;9.960;2023-01-28T08:55:28;102564.78;;;-0.48;nan
14343;BME280;7255;53.596;9.960;2023-01-28T08:57:55;102576.19;;;-0.34;nan
14343;BME280;7255;53.596;9.960;2023-01-28T09:00:22;102592.44;;;-0.41;nan
14343;BME280;7255;53.596;9.960;2023-01-28T09:02:50;102586.75;;;-0.34;nan
14343;BME280;7255;53.596;9.960;2023-01-28T09:05:16;102596.03;;;-0.16;nan
14343;BME280;7255;53.596;9.960;2023-01-28T09:07:42;102611.41;;;0.03;nan
14343;BME280;7255;53.596;9.960;2023-01-28T09:10:10;102603.78;;;0.11;nan
14343;BME280;7255;53.596;9.960;2023-01-28T09:12:37;102607.59;;;0.07;nan
14343;BME280;7255;53.596;9.960;2023-01-28T09:15:05;102605.66;;;0.22;nan
14343;BME280;7255;53.596;9.960;2023-01-28T09:17:32;102631.22;;;0.34;nan
14343;BME280;7255;53.596;9.960;2023-01-28T09:19:58;102641.13;;;0.44;nan
14343;BME280;7255;53.596;9.960;2023-01-28T09:22:24;102643.22;;;0.51;nan
14343;BME280;7255;53.596;9.960;2023-01-28T09:24:50;102657.81;;;0.57;nan
14343;BME280;7255;53.596;9.960;2023-01-28T09:27:17;102642.56;;;0.61;nan
14343;BME280;7255;53.596;9.960;2023-01-28T09:29:45;102638.16;;;0.48;nan
14343;BME280;7255;53.596;9.960;2023-01-28T09:32:11;102651.66;;;0.56;nan
14343;BME280;7255;53.596;9.960;2023-01-28T09:34:38;102674.94;;;0.64;nan
14343;BME280;7255;53.596;9.960;2023-01-28T09:37:04;102672.16;;;0.66;nan
14343;BME280;7255;53.596;9.960;2023-01-28T09:39:30;102668.72;;;0.76;nan
14343;BME280;7255;53.596;9.960;2023-01-28T09:42:05;102672.50;;;0.85;nan
14343;BME280;7255;53.596;9.960;2023-01-28T09:44:43;102659.66;;;0.68;nan
14343;BME280;7255;53.596;9.960;2023-01-28T09:47:21;102656.78;;;0.47;nan
14343;BME280;7255;53.596;9.960;2023-01-28T09:49:50;102606.78;;;0.55;nan
14343;BME280;7255;53.596;9.960;2023-01-28T09:52:20;102638.09;;;0.61;nan
14343;BME280;7255;53.596;9.960;2023-01-28T09:54:49;102620.72;;;0.70;nan
14343;BME280;7255;53.596;9.960;2023-01-28T09:57:20;102656.00;;;0.82;nan
14343;BME280;7255;53.596;9.960;2023-01-28T09:59:47;102650.16;;;1.01;nan
14343;BME280;7255;53.596;9.960;2023-01-28T10:02:33;102659.00;;;1.12;nan
14343;BME280;7255;53.596;9.960;2023-01-28T10:05:15;102646.19;;;1.30;nan
14343;BME280;7255;53.596;9.960;2023-01-28T10:07:48;102642.56;;;1.31;nan
14343;BME280;7255;53.596;9.960;2023-01-28T10:10:20;102645.62;;;1.49;nan
14343;BME280;7255;53.596;9.960;2023-01-28T10:13:03;102647.44;;;1.60;nan
14343;BME280;7255;53.596;9.960;2023-01-28T10:16:11;102653.47;;;1.73;nan
14343;BME280;7255;53.596;9.960;2023-01-28T10:18:45;102662.03;;;1.88;nan
14343;BME280;7255;53.596;9.960;2023-01-28T10:21:17;102645.16;;;2.01;nan
14343;BME280;7255;53.596;9.960;2023-01-28T10:23:52;102658.69;;;2.09;nan
14343;BME280;7255;53.596;9.960;2023-01-28T10:26:22;102656.00;;;2.20;nan
14343;BME280;7255;53.596;9.960;2023-01-28T10:28:53;102647.19;;;2.08;nan
14343;BME280;7255;53.596;9.960;2023-01-28T10:31:21;102614.78;;;2.05;nan
14343;BME280;7255;53.596;9.960;2023-01-28T10:33:49;102650.94;;;2.17;nan
14343;BME280;7255;53.596;9.960;2023-01-28T10:36:16;102632.63;;;2.25;nan
14343;BME280;7255;53.596;9.960;2023-01-28T10:38:42;102649.47;;;2.36;nan
14343;BME280;7255;53.596;9.960;2023-01-28T10:41:10;102635.25;;;2.37;nan
14343;BME280;7255;53.596;9.960;2023-01-28T10:43:40;102637.66;;;2.28;nan
14343;BME280;7255;53.596;9.960;2023-01-28T10:46:10;102631.59;;;2.38;nan
14343;BME280;7255;53.596;9.960;2023-01-28T10:48:42;102623.37;;;2.52;nan
14343;BME280;7255;53.596;9.960;2023-01-28T10:51:12;102627.94;;;2.61;nan
14343;BME280;7255;53.596;9.960;2023-01-28T10:53:41;102631.28;;;2.63;nan
14343;BME280;7255;53.596;9.960;2023-01-28T10:56:09;102621.44;;;2.54;nan
14343;BME280;7255;53.596;9.960;2023-01-28T10:58:47;102621.78;;;2.61;nan
14343;BME280;7255;53.596;9.960;2023-01-28T11:01:15;102632.31;;;2.51;nan
14343;BME280;7255;53.596;9.960;2023-01-28T11:03:52;102615.28;;;2.54;nan
14343;BME280;7255;53.596;9.960;2023-01-28T11:06:25;102596.16;;;2.39;nan
14343;BME280;7255;53.596;9.960;2023-01-28T11:08:52;102586.28;;;2.29;nan
14343;BME280;7255;53.596;9.960;2023-01-28T11:11:23;102559.31;;;2.13;nan
14343;BME280;7255;53.596;9.960;2023-01-28T11:13:52;102592.59;;;2.17;nan
14343;BME280;7255;53.596;9.960;2023-01-28T11:16:20;102603.88;;;2.30;nan
14343;BME280;7255;53.596;9.960;2023-01-28T11:18:51;102589.66;;;2.31;nan
14343;BME280;7255;53.596;9.960;2023-01-28T11:21:19;102576.28;;;2.33;nan
14343;BME280;7255;53.596;9.960;2023-01-28T11:23:50;102564.06;;;2.42;nan
14343;BME280;7255;53.596;9.960;2023-01-28T11:26:20;102592.78;;;2.69;nan
14343;BME280;7255;53.596;9.960;2023-01-28T11:28:47;102574.09;;;3.13;nan
14343;BME280;7255;53.596;9.960;2023-01-28T11:31:16;102581.84;;;3.46;nan
14343;BME280;7255;53.596;9.960;2023-01-28T11:33:45;102579.97;;;3.68;nan
14343;BME280;7255;53.596;9.960;2023-01-28T11:36:15;102576.34;;;3.69;nan
14343;BME280;7255;53.596;9.960;2023-01-28T11:38:51;102587.09;;;3.37;nan
14343;BME280;7255;53.596;9.960;2023-01-28T11:41:24;102553.75;;;3.23;nan
14343;BME280;7255;53.596;9.960;2023-01-28T11:43:50;102560.72;;;3.24;nan
14343;BME280;7255;53.596;9.960;2023-01-28T11:46:31;102589.78;;;3.16;nan
14343;BME280;7255;53.596;9.960;2023-01-28T11:49:06;102572.50;;;3.31;nan
14343;BME280;7255;53.596;9.960;2023-01-28T11:51:41;102568.00;;;3.22;nan
14343;BME280;7255;53.596;9.960;2023-01-28T11:54:36;102557.56;;;3.09;nan
14343;BME280;7255;53.596;9.960;2023-01-28T11:57:19;102550.25;;;3.01;nan
14343;BME280;7255;53.596;9.960;2023-01-28T12:00:01;102554.78;;;2.68;nan
14343;BME280;7255;53.596;9.960;2023-01-28T12:02:50;102557.72;;;2.54;nan
14343;BME280;7255;53.596;9.960;2023-01-28T12:05:29;102543.00;;;2.61;nan
14343;BME280;7255;53.596;9.960;2023-01-28T12:08:04;102554.19;;;2.65;nan
14343;BME280;7255;53.596;9.960;2023-01-28T12:10:38;102537.75;;;2.71;nan
14343;BME280;7255;53.596;9.960;2023-01-28T12:13:16;102557.12;;;2.83;nan
14343;BME280;7255;53.596;9.960;2023-01-28T12:16:13;102555.56;;;3.01;nan
14343;BME280;7255;53.596;9.960;2023-01-28T12:19:07;102550.00;;;3.04;nan
14343;BME280;7255;53.596;9.960;2023-01-28T12:21:44;102567.31;;;2.99;nan
14343;BME280;7255;53.596;9.960;2023-01-28T12:24:25;102542.50;;;3.10;nan
14343;BME280;7255;53.596;9.960;2023-01-28T12:27:00;102548.69;;;3.20;nan
14343;BME280;7255;53.596;9.960;2023-01-28T12:29:34;102566.50;;;3.60;nan
14343;BME280;7255;53.596;9.960;2023-01-28T12:32:29;102545.34;;;3.99;nan
14343;BME280;7255;53.596;9.960;2023-01-28T12:35:25;102569.22;;;4.20;nan
14343;BME280;7255;53.596;9.960;2023-01-28T12:38:06;102548.75;;;4.20;nan
14343;BME280;7255;53.596;9.960;2023-01-28T12:40:52;102550.97;;;4.05;nan
14343;BME280;7255;53.596;9.960;2023-01-28T12:43:31;102544.81;;;4.15;nan
14343;BME280;7255;53.596;9.960;2023-01-28T12:46:09;102561.38;;;4.38;nan
14343;BME280;7255;53.596;9.960;2023-01-28T12:48:38;102556.34;;;4.44;nan
14343;BME280;7255;53.596;9.960;2023-01-28T12:51:10;102543.19;;;4.53;nan
14343;BME280;7255;53.596;9.960;2023-01-28T12:53:42;102544.28;;;4.50;nan
14343;BME280;7255;53.596;9.960;2023-01-28T12:56:15;102532.81;;;4.40;nan
14343;BME280;7255;53.596;9.960;2023-01-28T12:58:47;102513.19;;;4.21;nan
14343;BME280;7255;53.596;9.960;2023-01-28T13:01:20;102519.06;;;4.15;nan
14343;BME280;7255;53.596;9.960;2023-01-28T13:03:52;102518.50;;;4.21;nan
14343;BME280;7255;53.596;9.960;2023-01-28T13:06:26;102518.78;;;4.09;nan
14343;BME280;7255;53.596;9.960;2023-01-28T13:08:59;102502.25;;;4.05;nan
14343;BME280;7255;53.596;9.960;2023-01-28T13:11:32;102500.25;;;3.78;nan
14343;BME280;7255;53.596;9.960;2023-01-28T13:14:02;102502.44;;;3.63;nan
14343;BME280;7255;53.596;9.960;2023-01-28T13:16:29;102498.75;;;3.44;nan
14343;BME280;7255;53.596;9.960;2023-01-28T13:19:04;102497.28;;;3.31;nan
14343;BME280;7255;53.596;9.960;2023-01-28T13:21:34;102483.28;;;3.28;nan
14343;BME280;7255;53.596;9.960;2023-01-28T13:24:19;102495.22;;;3.13;nan
14343;BME280;7255;53.596;9.960;2023-01-28T13:26:47;102485.19;;;3.17;nan
14343;BME280;7255;53.596;9.960;2023-01-28T13:29:26;102483.47;;;3.06;nan
14343;BME280;7255;53.596;9.960;2023-01-28T13:31:55;102478.69;;;3.00;nan
14343;BME280;7255;53.596;9.960;2023-01-28T13:34:40;102474.19;;;3.00;nan
14343;BME280;7255;53.596;9.960;2023-01-28T13:37:17;102485.03;;;2.87;nan
14343;BME280;7255;53.596;9.960;2023-01-28T13:39:48;102495.19;;;3.03;nan
14343;BME280;7255;53.596;9.960;2023-01-28T13:42:24;102485.97;;;3.07;nan
14343;BME280;7255;53.596;9.960;2023-01-28T13:44:52;102482.03;;;3.02;nan
14343;BME280;7255;53.596;9.960;2023-01-28T13:47:24;102511.16;;;3.13;nan